createdAt,value
2019-04-26T00:00:07.527Z,80.20
2019-04-26T00:02:40.864Z,79.70
2019-04-26T00:05:19.352Z,79.90
2019-04-26T00:07:51.897Z,80.50
2019-04-26T00:10:28.087Z,80.60
2019-04-26T00:13:01.598Z,80.60
2019-04-26T00:15:40.489Z,80.60
2019-04-26T00:18:14.727Z,81.20
2019-04-26T00:20:45.512Z,81.00
2019-04-26T00:23:16.583Z,79.70
2019-04-26T00:25:46.997Z,80.10
2019-04-26T00:28:18.967Z,80.40
2019-04-26T00:30:51.682Z,80.30
2019-04-26T00:33:23.480Z,81.20
2019-04-26T00:36:00.328Z,81.70
2019-04-26T00:38:31.091Z,81.50
2019-04-26T00:41:05.877Z,81.00
2019-04-26T00:43:43.143Z,81.60
2019-04-26T00:46:13.249Z,81.60
2019-04-26T00:48:44.592Z,81.80
2019-04-26T00:51:15.646Z,82.30
2019-04-26T00:53:51.959Z,81.90
2019-04-26T00:56:35.344Z,81.70
2019-04-26T00:59:07.246Z,81.80
2019-04-26T01:01:41.865Z,81.90
2019-04-26T01:04:16.057Z,81.60
2019-04-26T01:06:49.398Z,81.90
2019-04-26T01:09:19.610Z,82.10
2019-04-26T01:11:49.026Z,81.70
2019-04-26T01:14:19.978Z,81.70
2019-04-26T01:16:50.578Z,81.70
2019-04-26T01:19:26.685Z,81.30
2019-04-26T01:22:02.400Z,81.60
2019-04-26T01:24:35.932Z,82.00
2019-04-26T01:27:13.312Z,82.10
2019-04-26T01:29:46.749Z,82.40
2019-04-26T01:32:22.107Z,82.30
2019-04-26T01:34:57.212Z,82.40
2019-04-26T01:37:28.867Z,82.90
2019-04-26T01:40:06.398Z,82.60
2019-04-26T01:42:53.035Z,82.80
2019-04-26T01:45:28.241Z,83.00
2019-04-26T01:48:01.973Z,83.20
2019-04-26T01:50:34.532Z,83.60
2019-04-26T01:53:06.318Z,83.50
2019-04-26T01:55:38.509Z,83.50
2019-04-26T01:58:17.115Z,83.80
2019-04-26T02:01:03.460Z,84.10
2019-04-26T02:03:33.075Z,84.00
2019-04-26T02:06:05.026Z,83.60
2019-04-26T02:08:38.091Z,83.10
2019-04-26T02:11:11.793Z,83.00
2019-04-26T02:13:42.164Z,83.20
2019-04-26T02:16:12.591Z,83.40
2019-04-26T02:18:45.992Z,83.30
2019-04-26T02:21:31.974Z,83.70
2019-04-26T02:24:16.503Z,83.50
2019-04-26T02:26:47.753Z,83.40
2019-04-26T02:29:26.955Z,83.50
2019-04-26T02:32:03.077Z,83.30
2019-04-26T02:34:38.151Z,83.10
2019-04-26T02:37:14.291Z,83.20
2019-04-26T02:39:50.238Z,83.40
2019-04-26T02:42:23.156Z,83.10
2019-04-26T02:45:22.151Z,83.00
2019-04-26T02:48:14.181Z,82.90
2019-04-26T02:50:51.291Z,83.00
2019-04-26T02:53:47.597Z,83.40
2019-04-26T02:56:30.327Z,83.10
2019-04-26T02:59:17.973Z,82.60
2019-04-26T03:01:52.042Z,82.80
2019-04-26T03:04:26.001Z,83.00
2019-04-26T03:07:03.407Z,83.10
2019-04-26T03:09:36.913Z,83.30
2019-04-26T03:12:15.884Z,83.50
2019-04-26T03:14:51.505Z,83.40
2019-04-26T03:17:34.129Z,82.90
2019-04-26T03:20:15.446Z,83.10
2019-04-26T03:23:12.942Z,82.70
2019-04-26T03:25:55.138Z,82.90
2019-04-26T03:28:46.353Z,82.70
2019-04-26T03:31:42.917Z,82.60
2019-04-26T03:34:34.466Z,82.80
2019-04-26T03:37:35.729Z,83.20
2019-04-26T03:40:22.603Z,83.40
2019-04-26T03:43:15.546Z,83.50
2019-04-26T03:45:53.680Z,83.90
2019-04-26T03:48:28.301Z,84.00
2019-04-26T03:51:10.331Z,84.20
2019-04-26T03:53:55.332Z,84.50
2019-04-26T03:56:35.928Z,84.40
2019-04-26T03:59:36.807Z,84.80
2019-04-26T04:02:10.848Z,84.20
2019-04-26T04:04:49.137Z,84.60
2019-04-26T04:07:36.120Z,84.60
2019-04-26T04:10:01.973Z,84.10
2019-04-26T04:12:45.451Z,84.50
2019-04-26T04:15:18.151Z,84.50
2019-04-26T04:18:07.578Z,83.80
2019-04-26T04:21:11.590Z,83.60
2019-04-26T04:23:48.779Z,84.30
2019-04-26T04:26:23.876Z,83.90
2019-04-26T04:29:39.863Z,83.90
2019-04-26T04:32:29.910Z,83.50
2019-04-26T04:35:07.597Z,83.50
2019-04-26T04:38:08.816Z,83.50
2019-04-26T04:40:37.564Z,84.20
2019-04-26T04:43:15.853Z,84.00
2019-04-26T04:46:14.769Z,83.80
2019-04-26T04:49:12.109Z,83.40
2019-04-26T04:51:51.737Z,83.10
2019-04-26T04:54:41.547Z,83.30
2019-04-26T04:57:31.933Z,84.30
2019-04-26T05:00:11.069Z,84.00
2019-04-26T05:03:05.366Z,84.20
2019-04-26T05:06:11.023Z,83.70
2019-04-26T05:08:59.557Z,83.50
2019-04-26T05:11:51.854Z,83.00
2019-04-26T05:14:43.876Z,82.20
2019-04-26T05:17:46.061Z,82.70
2019-04-26T05:20:56.278Z,82.50
2019-04-26T05:23:53.145Z,82.50
2019-04-26T05:30:22.352Z,82.20
2019-04-26T05:37:06.442Z,81.70
2019-04-26T05:43:33.560Z,79.70
2019-04-26T05:46:30.478Z,79.80
2019-04-26T05:50:07.325Z,79.80
2019-04-26T05:53:25.029Z,79.50
2019-04-26T05:56:32.876Z,79.50
2019-04-26T06:03:01.319Z,79.90
2019-04-26T06:13:09.192Z,80.30
2019-04-26T06:19:21.702Z,80.30
2019-04-26T06:25:27.207Z,78.90
2019-04-26T06:39:27.611Z,79.50
2019-04-26T06:46:36.557Z,79.40
2019-04-26T06:48:37.316Z,80.20
2019-04-26T07:05:32.696Z,78.50
2019-04-26T07:08:14.560Z,78.00
2019-04-26T07:11:25.642Z,77.80
2019-04-26T07:17:31.255Z,76.40
2019-04-26T07:20:18.635Z,76.00
2019-04-26T07:23:17.893Z,75.80
2019-04-26T07:26:33.243Z,75.60
2019-04-26T07:33:10.009Z,74.50
2019-04-26T07:36:09.799Z,73.90
2019-04-26T07:39:19.474Z,74.20
2019-04-26T07:42:28.928Z,74.30
2019-04-26T07:45:41.452Z,73.40
2019-04-26T07:48:42.610Z,73.80
2019-04-26T07:51:35.508Z,74.10
2019-04-26T07:54:47.194Z,73.40
2019-04-26T07:57:59.699Z,73.10
2019-04-26T08:00:45.326Z,72.30
2019-04-26T08:03:27.974Z,72.20
2019-04-26T08:06:18.604Z,71.40
2019-04-26T08:12:06.300Z,70.90
2019-04-26T08:15:09.982Z,70.10
2019-04-26T08:17:48.672Z,68.90
2019-04-26T08:20:58.484Z,68.80
2019-04-26T08:23:56.544Z,69.10
2019-04-26T08:26:35.473Z,69.00
2019-04-26T08:29:29.892Z,67.90
2019-04-26T08:32:17.200Z,67.90
2019-04-26T08:35:08.221Z,68.00
2019-04-26T08:37:41.849Z,67.70
2019-04-26T08:40:25.511Z,67.40
2019-04-26T08:43:11.002Z,67.40
2019-04-26T08:46:11.262Z,66.80
2019-04-26T08:49:06.151Z,65.90
2019-04-26T08:51:37.739Z,66.10
2019-04-26T08:54:12.765Z,66.60
2019-04-26T08:56:53.347Z,66.20
2019-04-26T08:59:32.000Z,65.00
2019-04-26T09:02:26.187Z,65.60
2019-04-26T09:05:13.883Z,65.40
2019-04-26T09:08:08.612Z,65.10
2019-04-26T09:10:53.235Z,63.90
2019-04-26T09:13:33.065Z,63.30
2019-04-26T09:16:13.085Z,63.50
2019-04-26T09:18:54.220Z,64.30
2019-04-26T09:21:29.701Z,63.70
2019-04-26T09:24:27.303Z,62.90
2019-04-26T09:27:17.155Z,63.10
2019-04-26T09:30:08.043Z,61.00
2019-04-26T09:33:01.888Z,61.90
2019-04-26T09:35:31.894Z,60.20
2019-04-26T09:38:06.301Z,60.10
2019-04-26T09:40:46.840Z,59.40
2019-04-26T09:43:31.834Z,59.60
2019-04-26T09:46:28.140Z,59.60
2019-04-26T09:49:08.596Z,59.90
2019-04-26T09:51:50.548Z,58.90
2019-04-26T09:54:27.988Z,59.10
2019-04-26T09:57:01.188Z,59.80
2019-04-26T09:59:39.919Z,60.20
2019-04-26T10:02:22.661Z,59.50
2019-04-26T10:08:03.033Z,57.90
2019-04-26T10:10:51.762Z,56.80
2019-04-26T10:13:43.894Z,57.30
2019-04-26T10:16:27.737Z,58.40
2019-04-26T10:19:04.913Z,58.10
2019-04-26T10:21:49.517Z,57.00
2019-04-26T10:24:36.440Z,56.70
2019-04-26T10:27:08.043Z,56.70
2019-04-26T10:29:43.654Z,55.60
2019-04-26T10:32:26.330Z,55.50
2019-04-26T10:34:59.252Z,55.60
2019-04-26T10:37:39.526Z,55.60
2019-04-26T10:43:11.595Z,55.40
2019-04-26T10:45:53.646Z,55.50
2019-04-26T10:48:26.783Z,54.90
2019-04-26T10:51:07.398Z,54.70
2019-04-26T10:54:05.972Z,54.30
2019-04-26T10:56:40.982Z,54.10
2019-04-26T10:59:25.711Z,52.70
2019-04-26T11:02:00.061Z,51.90
2019-04-26T11:07:39.574Z,53.20
2019-04-26T11:10:21.253Z,52.70
2019-04-26T11:15:49.307Z,52.70
2019-04-26T11:18:27.588Z,51.40
2019-04-26T11:21:02.829Z,50.10
2019-04-26T11:23:45.495Z,50.50
2019-04-26T11:26:21.937Z,47.60
2019-04-26T11:29:19.061Z,45.20
2019-04-26T11:32:02.651Z,44.10
2019-04-26T11:34:35.304Z,43.20
2019-04-26T11:37:35.879Z,41.70
2019-04-26T11:40:37.453Z,41.40
2019-04-26T11:43:15.831Z,41.30
2019-04-26T11:46:04.129Z,40.80
2019-04-26T11:48:38.077Z,39.90
2019-04-26T11:51:28.578Z,39.40
2019-04-26T11:53:56.408Z,41.10
2019-04-26T11:56:28.812Z,41.10
2019-04-26T11:59:04.992Z,40.90
2019-04-26T12:01:46.631Z,40.80
2019-04-26T12:04:41.336Z,40.20
2019-04-26T12:07:26.395Z,39.20
2019-04-26T12:10:19.697Z,39.10
2019-04-26T12:13:04.913Z,38.80
2019-04-26T12:15:39.132Z,39.60
2019-04-26T12:18:14.911Z,39.70
2019-04-26T12:20:49.457Z,40.80
2019-04-26T12:23:24.690Z,40.40
2019-04-26T12:26:00.805Z,40.40
2019-04-26T12:28:42.034Z,40.40
2019-04-26T12:31:23.636Z,39.30
2019-04-26T12:37:20.029Z,37.60
2019-04-26T12:39:54.187Z,36.80
2019-04-26T12:42:28.100Z,36.90
2019-04-26T12:45:22.867Z,36.60
2019-04-26T12:48:01.839Z,36.90
2019-04-26T12:50:41.104Z,36.10
2019-04-26T12:53:19.717Z,36.60
2019-04-26T12:55:53.623Z,36.50
2019-04-26T12:58:45.694Z,35.10
2019-04-26T13:01:33.092Z,34.60
2019-04-26T13:04:13.000Z,34.90
2019-04-26T13:06:58.324Z,35.60
2019-04-26T13:15:50.320Z,38.00
2019-04-26T13:18:23.546Z,37.10
2019-04-26T13:21:02.869Z,35.80
2019-04-26T13:23:51.968Z,35.40
2019-04-26T13:26:26.048Z,34.40
2019-04-26T13:32:04.340Z,34.00
2019-04-26T13:37:52.941Z,32.40
2019-04-26T13:41:03.957Z,33.00
2019-04-26T13:43:37.947Z,33.40
2019-04-26T13:46:38.946Z,32.90
2019-04-26T13:49:28.353Z,34.40
2019-04-26T13:52:04.475Z,35.20
2019-04-26T13:54:37.758Z,37.00
2019-04-26T13:57:13.017Z,36.90
2019-04-26T13:59:43.749Z,35.10
2019-04-26T14:02:25.587Z,33.60
2019-04-26T14:05:02.975Z,33.90
2019-04-26T14:07:33.868Z,35.00
2019-04-26T14:10:09.080Z,37.10
2019-04-26T14:12:49.895Z,36.90
2019-04-26T14:15:25.361Z,37.20
2019-04-26T14:17:56.363Z,37.20
2019-04-26T14:20:31.180Z,36.00
2019-04-26T14:23:26.764Z,35.10
2019-04-26T14:26:16.016Z,34.90
2019-04-26T14:28:54.128Z,33.40
2019-04-26T14:31:36.621Z,33.00
2019-04-26T14:34:12.133Z,33.20
2019-04-26T14:36:44.177Z,34.60
2019-04-26T14:39:19.658Z,35.30
2019-04-26T14:41:56.987Z,36.30
2019-04-26T14:44:32.953Z,37.00
2019-04-26T14:47:13.198Z,38.10
2019-04-26T14:49:39.581Z,38.70
2019-04-26T14:52:10.399Z,39.20
2019-04-26T14:54:46.080Z,39.70
2019-04-26T14:57:28.983Z,37.60
2019-04-26T15:00:12.743Z,37.10
2019-04-26T15:02:50.279Z,37.50
2019-04-26T15:05:26.543Z,37.60
2019-04-26T15:08:31.926Z,37.30
2019-04-26T15:20:58.897Z,37.60
2019-04-26T15:25:03.469Z,37.20
2019-04-26T15:36:47.961Z,35.80
2019-04-26T15:40:08.231Z,35.30
2019-04-26T15:43:25.155Z,35.70
2019-04-26T15:52:33.646Z,36.50
2019-04-26T16:04:13.414Z,36.40
2019-04-26T16:15:56.646Z,36.30
2019-04-26T16:25:08.179Z,37.20
2019-04-26T16:31:26.800Z,37.50
2019-04-26T16:34:34.974Z,37.40
2019-04-26T16:53:03.497Z,37.00
2019-04-26T17:07:39.038Z,39.80
2019-04-26T17:16:48.378Z,40.70
2019-04-26T17:19:37.375Z,41.30
2019-04-26T17:22:23.254Z,42.00
2019-04-26T17:28:11.936Z,41.80
2019-04-26T17:33:50.890Z,41.70
2019-04-26T17:36:34.285Z,41.20
2019-04-26T17:38:57.236Z,41.40
2019-04-26T17:41:36.271Z,41.20
2019-04-26T17:44:10.657Z,41.20
2019-04-26T17:53:33.210Z,42.80
2019-04-26T17:56:15.678Z,43.90
2019-04-26T17:59:09.040Z,44.40
2019-04-26T18:01:47.968Z,45.00
2019-04-26T18:04:36.061Z,45.50
2019-04-26T18:07:37.598Z,46.00
2019-04-26T18:10:13.846Z,47.00
2019-04-26T18:12:50.772Z,47.80
2019-04-26T18:15:35.544Z,48.50
2019-04-26T18:18:09.739Z,48.80
2019-04-26T18:21:00.513Z,48.80
2019-04-26T18:23:34.489Z,48.40
2019-04-26T18:26:13.475Z,47.70
2019-04-26T18:28:51.638Z,47.70
2019-04-26T18:31:22.140Z,47.40
2019-04-26T18:33:54.883Z,47.20
2019-04-26T18:36:27.718Z,47.00
2019-04-26T18:39:03.905Z,47.40
2019-04-26T18:41:37.979Z,47.20
2019-04-26T18:44:11.481Z,47.10
2019-04-26T18:46:47.626Z,47.20
2019-04-26T18:49:24.948Z,47.70
2019-04-26T18:51:57.749Z,47.60
2019-04-26T18:54:30.365Z,47.80
2019-04-26T18:57:09.637Z,47.80
2019-04-26T18:59:51.492Z,48.20
2019-04-26T19:02:26.687Z,48.40
2019-04-26T19:05:08.485Z,48.60
2019-04-26T19:07:57.043Z,49.00
2019-04-26T19:10:34.379Z,49.20
2019-04-26T19:13:32.141Z,49.30
2019-04-26T19:16:23.065Z,49.40
2019-04-26T19:19:05.396Z,49.70
2019-04-26T19:21:56.599Z,49.80
2019-04-26T19:31:28.738Z,50.30
2019-04-26T19:33:35.119Z,50.30
2019-04-26T19:36:17.700Z,50.30
2019-04-26T19:38:54.561Z,50.50
2019-04-26T19:41:43.043Z,50.90
2019-04-26T19:47:15.358Z,50.80
2019-04-26T19:49:58.480Z,51.10
2019-04-26T19:52:58.992Z,52.10
2019-04-26T19:55:41.816Z,52.40
2019-04-26T19:58:20.081Z,53.20
2019-04-26T20:00:46.856Z,53.80
2019-04-26T20:03:37.388Z,54.10
2019-04-26T20:09:37.263Z,55.30
2019-04-26T20:16:36.446Z,56.60
2019-04-26T20:25:36.303Z,57.20
2019-04-26T20:28:17.627Z,57.20
2019-04-26T20:33:57.786Z,57.90
2019-04-26T20:39:45.757Z,59.00
2019-04-26T20:42:23.622Z,58.90
2019-04-26T20:44:56.671Z,59.00
2019-04-26T20:47:36.084Z,59.20
2019-04-26T20:50:13.918Z,59.30
2019-04-26T20:52:45.513Z,59.10
2019-04-26T20:55:15.314Z,58.10
2019-04-26T20:57:48.858Z,57.60
2019-04-26T21:00:22.922Z,57.10
2019-04-26T21:03:01.094Z,57.50
2019-04-26T21:05:24.779Z,57.20
2019-04-26T21:07:55.001Z,57.20
2019-04-26T21:10:29.069Z,57.20
2019-04-26T21:12:58.899Z,57.40
2019-04-26T21:15:29.417Z,57.00
2019-04-26T21:18:02.780Z,57.30
2019-04-26T21:20:34.515Z,57.40
2019-04-26T21:23:03.735Z,58.00
2019-04-26T21:25:42.033Z,58.10
2019-04-26T21:28:15.132Z,58.10
2019-04-26T21:31:07.473Z,58.20
2019-04-26T21:33:42.995Z,58.40
2019-04-26T21:36:25.748Z,58.90
2019-04-26T21:39:15.018Z,59.30
2019-04-26T21:41:48.892Z,59.50
2019-04-26T21:44:29.915Z,60.30
2019-04-26T21:47:27.456Z,60.50
2019-04-26T21:50:00.747Z,60.70
2019-04-26T21:52:32.034Z,60.90
2019-04-26T21:55:02.720Z,61.20
2019-04-26T21:57:41.546Z,61.90
2019-04-26T22:00:13.875Z,62.30
2019-04-26T22:02:46.914Z,62.30
2019-04-26T22:05:18.508Z,62.10
2019-04-26T22:07:53.457Z,62.20
2019-04-26T22:10:32.914Z,62.30
2019-04-26T22:13:08.584Z,62.40
2019-04-26T22:15:57.758Z,62.90
2019-04-26T22:18:40.645Z,63.10
2019-04-26T22:21:12.841Z,63.50
2019-04-26T22:24:03.974Z,63.20
2019-04-26T22:26:37.983Z,63.20
2019-04-26T22:29:11.988Z,63.60
2019-04-26T22:31:45.169Z,64.00
2019-04-26T22:34:17.301Z,64.50
2019-04-26T22:36:47.844Z,64.60
2019-04-26T22:39:20.899Z,64.90
2019-04-26T22:41:58.373Z,64.80
2019-04-26T22:44:35.540Z,64.30
2019-04-26T22:47:14.950Z,64.70
2019-04-26T22:49:49.924Z,65.00
2019-04-26T22:52:19.382Z,65.10
2019-04-26T22:54:49.813Z,65.70
2019-04-26T22:57:20.237Z,66.50
2019-04-26T22:59:50.653Z,66.80
2019-04-26T23:02:26.278Z,67.10
2019-04-26T23:04:56.086Z,67.30
2019-04-26T23:07:26.077Z,67.20
2019-04-26T23:09:55.557Z,67.30
2019-04-26T23:12:28.259Z,67.80
2019-04-26T23:15:16.878Z,68.00
2019-04-26T23:17:50.772Z,67.90
2019-04-26T23:20:25.250Z,68.00
2019-04-26T23:23:05.210Z,68.40
2019-04-26T23:25:34.285Z,68.50
2019-04-26T23:28:05.415Z,68.70
2019-04-26T23:30:40.205Z,69.00
2019-04-26T23:33:18.193Z,69.40
2019-04-26T23:36:06.317Z,69.50
2019-04-26T23:38:50.476Z,69.50
2019-04-26T23:41:25.794Z,69.70
2019-04-26T23:44:03.147Z,69.80
2019-04-26T23:46:28.732Z,70.00
2019-04-26T23:49:00.253Z,69.90
2019-04-26T23:51:29.840Z,70.00
2019-04-26T23:54:15.525Z,70.00
2019-04-26T23:56:48.142Z,70.20
2019-04-26T23:59:20.781Z,70.20
